Nearby METAR Reports

KLNK - Lincoln, Nebraska, USA
Distance from station: WNW 8mi, 13km
Updated: Sat, 18-Jan-2020 7:54pm CST
Clear
Clear
 Wind from NNW
Wind: NNW 6 mph , 9 km/h
Temperature: 16°F , -9°C
Wind Chill: 7°F , -14°C
Dew Point: 10°F , -12°C
Humidity: 79%
Barometer: 30.39 inHg , 1029.1 hPa
Clouds: Clear
Visibility: 10 miles , 16 km
2020/01/19 01:54 KLNK 190154Z 33005KT 10SM CLR M09/M12 A3039 RMK AO2 SLP312 T10891122
KAHQ - Wahoo, Nebraska, USA
Distance from station: N 31mi, 49km
Updated: Sat, 18-Jan-2020 8:35pm CST
Clear
Clear
 Wind from NNW
Wind: NNW 9 mph , 15 km/h
Temperature: 10°F , -12°C
Wind Chill: -3°F , -19°C
Dew Point: 3°F , -16°C
Humidity: 72%
Barometer: 30.40 inHg , 1029.5 hPa
Clouds: Clear
Visibility: 10 miles , 16 km
2020/01/19 02:35 KAHQ 190235Z AUTO 34008KT 10SM CLR M12/M16 A3040 RMK AO2 T11221159
 
KBIE - Beatrice Municip, Nebraska, USA
Distance from station: S 36mi, 57km
Updated: Sat, 18-Jan-2020 8:35pm CST
Clear
Clear
 Wind from NNW
Wind: NNW 8 mph , 13 km/h
Temperature: 19°F , -7°C
Wind Chill: 9°F , -13°C
Dew Point: 14°F , -10°C
Humidity: 79%
Barometer: 30.38 inHg , 1028.8 hPa
Clouds: Clear
Visibility: 10 miles , 16 km
2020/01/19 02:35 KBIE 190235Z AUTO 34007KT 10SM CLR M07/M10 A3038 RMK AO2 T10701101
KMLE - Omaha/Millard, Nebraska, USA
Distance from station: NE 39mi, 63km
Updated: Sat, 18-Jan-2020 8:35pm CST
Clear
Clear
 Wind from NW
Wind: NW 10 mph , 17 km/h
Temperature: 14°F , -10°C
Wind Chill: 1°F , -17°C
Dew Point: 3°F , -16°C
Humidity: 62%
Barometer: 30.41 inHg , 1029.8 hPa
Clouds: Clear
Visibility: 10 miles , 16 km
2020/01/19 02:35 KMLE 190235Z AUTO 31009KT 10SM CLR M10/M16 A3041 RMK AO2 T10981161
 
KPMV - Plattsmouth Muni, Nebraska, USA
Distance from station: ENE 39mi, 63km
Updated: Sat, 18-Jan-2020 8:35pm CST
Clear
Clear
 Wind from NW
Wind: NW 14 mph , 22 km/h
Temperature: 14°F , -10°C
Wind Chill: -1°F , -18°C
Dew Point: 5°F , -15°C
Humidity: 67%
Barometer: 30.38 inHg , 1028.8 hPa
Clouds: Clear
Visibility: 10 miles , 16 km
2020/01/19 02:35 KPMV 190235Z AUTO 32012KT 10SM CLR M10/M15 A3038 RMK AO2 T10981147
KAFK - Nebraska City, Nebraska, USA
Distance from station: ESE 43mi, 69km
Updated: Sat, 18-Jan-2020 8:35pm CST
Clear
Clear
 Wind from NNW
Wind: NNW 9 mph , 15 km/h
Temperature: 18°F , -8°C
Wind Chill: 7°F , -14°C
Dew Point: 10°F , -12°C
Humidity: 73%
Barometer: 30.38 inHg , 1028.8 hPa
Clouds: Clear
Visibility: 10 miles , 16 km
2020/01/19 02:35 KAFK 190235Z AUTO 33008KT 10SM CLR M08/M12 A3038 RMK AO2 T10821125
 
KOFF - Offutt Afb/Belle, Nebraska, USA
Distance from station: ENE 44mi, 70km
Updated: Sat, 18-Jan-2020 7:56pm CST
Clear
Clear
 Wind from NW
Wind: NW 12 mph , 19 km/h
Temperature: 14°F , -10°C
Wind Chill: 0°F , -18°C
Dew Point: 3°F , -16°C
Humidity: 62%
Barometer: 30.39 inHg , 1029.1 hPa
Clouds: Clear
Visibility: 10 miles , 16 km
2020/01/19 01:56 KOFF 190156Z 31010KT 10SM CLR M10/M16 A3039 RMK SLP324 RVRNO $
KFET - Fremont Muni Arp, Nebraska, USA
Distance from station: N 46mi, 74km
Updated: Sat, 18-Jan-2020 8:35pm CST
Clear
Clear
 Wind from NW
Wind: NW 13 mph , 20 km/h
Temperature: 10°F , -12°C
Wind Chill: -5°F , -21°C
Dew Point: 3°F , -16°C
Humidity: 72%
Barometer: 30.40 inHg , 1029.5 hPa
Clouds: Clear
Visibility: 10 miles , 16 km
2020/01/19 02:35 KFET 190235Z AUTO 31011KT 10SM CLR M12/M16 A3040 RMK AO2 T11201163
 
KBTA - Blair Muni, Nebraska, USA
Distance from station: NNE 51mi, 82km
Updated: Sat, 18-Jan-2020 8:35pm CST
Clear
Clear
 Wind from NW
Wind: NW 12 mph , 19 km/h
Temperature: 10°F , -12°C
Wind Chill: -5°F , -21°C
Dew Point: 1°F , -17°C
Humidity: 67%
Barometer: 30.37 inHg , 1028.4 hPa
Clouds: Clear
Visibility: 10 miles , 16 km
2020/01/19 02:35 KBTA 190235Z AUTO 32010KT 10SM CLR M12/M17 A3037 RMK AO2 T11241171
KJYR - York, Nebraska, USA
Distance from station: W 52mi, 84km
Updated: Sat, 18-Jan-2020 8:35pm CST
Clear
Clear
 Wind from N
Wind: N 7 mph , 11 km/h
Temperature: 16°F , -9°C
Wind Chill: 6°F , -14°C
Dew Point: 10°F , -12°C
Humidity: 79%
Barometer: 30.37 inHg , 1028.4 hPa
Clouds: Clear
Visibility: 10 miles , 16 km
2020/01/19 02:35 KJYR 190235Z AUTO 36006KT 10SM CLR M09/M12 A3037 RMK AO2
 
KOMA - Omaha/Eppley, Nebraska, USA
Distance from station: NE 53mi, 85km
Updated: Sat, 18-Jan-2020 7:52pm CST
Mostly Cloudy
Mostly Cloudy
 Wind from NW
Wind: NW 15 mph , 24 km/h
Temperature: 12°F , -11°C
Wind Chill: -4°F , -20°C
Dew Point: 1°F , -17°C
Humidity: 62%
Barometer: 30.39 inHg , 1029.1 hPa
Clouds: Mostly Cloudy
Visibility: 10 miles , 16 km
Cloud details: Mostly Cloudy 25000 ft
2020/01/19 01:52 KOMA 190152Z 32013KT 10SM BKN250 M11/M17 A3039 RMK AO2 SLP309 T11111172 $
KOLU - Columbus Muni, Nebraska, USA
Distance from station: NW 58mi, 93km
Updated: Sat, 18-Jan-2020 7:56pm CST
Clear
Clear
 Wind from N
Wind: N 7 mph , 11 km/h
Temperature: 10°F , -12°C
Wind Chill: -1°F , -18°C
Dew Point: 3°F , -16°C
Humidity: 72%
Barometer: 30.39 inHg , 1029.1 hPa
Clouds: Clear
Visibility: 10 miles , 16 km
2020/01/19 01:56 KOLU 190156Z AUTO 35006KT 10SM CLR M12/M16 A3039 RMK AO2 SLP325 T11221156 FZRANO